Terminal Aerodrome Forecast
Issued by NWS Jackson, MS

Home | Current Version | Previous Version | Text Only | Print | Product List | Glossary On
Versions: 1 2 3 4 5 6 7 8 9 10 11 12 13 14 15 16 17 18 19 20 21 22 23 24 25 26 27 28
000
FTUS44 KMEG 181208 AAA
TAFTUP
TAF AMD
KTUP 181208Z 1812/1912 11007KT 1SM BR OVC003
     FM181400 10005KT 2SM BR OVC008
     FM181500 12006KT P6SM BKN015 OVC200
     FM182100 14006KT P6SM VCTS BKN035CB OVC120
     FM190200 14006KT 5SM -SHRA VCTS SCT009 OVC015CB
     FM190600 18008KT 4SM -SHRA VCTS SCT004 OVC007CB=

USA.gov is the U.S. government's official web portal to all federal, state and local government web resources and services.